createdAt,value
2023-06-10T00:00:48.190Z,118.99
2023-06-10T00:03:17.553Z,118.99
2023-06-10T00:05:46.154Z,118.99
2023-06-10T00:08:16.860Z,118.99
2023-06-10T00:10:45.702Z,118.99
2023-06-10T00:13:14.554Z,118.99
2023-06-10T00:15:43.310Z,118.99
2023-06-10T00:18:12.839Z,118.99
2023-06-10T00:20:42.025Z,118.99
2023-06-10T00:23:10.694Z,118.99
2023-06-10T00:25:40.006Z,118.99
2023-06-10T00:28:08.649Z,118.99
2023-06-10T00:30:37.496Z,118.99
2023-06-10T00:33:06.446Z,118.99
2023-06-10T00:35:36.513Z,118.99
2023-06-10T00:38:05.044Z,118.99
2023-06-10T00:40:40.569Z,118.99
2023-06-10T00:43:09.075Z,118.99
2023-06-10T00:45:38.206Z,118.99
2023-06-10T00:48:07.319Z,118.99
2023-06-10T00:50:40.321Z,118.99
2023-06-10T00:53:08.801Z,118.99
2023-06-10T00:55:37.012Z,118.99
2023-06-10T00:58:06.924Z,118.99
2023-06-10T01:00:36.475Z,118.99
2023-06-10T01:03:09.401Z,118.99
2023-06-10T01:05:40.553Z,118.99
2023-06-10T01:08:14.413Z,118.99
2023-06-10T01:10:50.477Z,118.99
2023-06-10T01:13:24.807Z,118.99
2023-06-10T01:15:55.861Z,118.99
2023-06-10T01:18:31.830Z,118.99
2023-06-10T01:21:01.739Z,118.99
2023-06-10T01:23:30.849Z,118.99
2023-06-10T01:26:11.716Z,118.99
2023-06-10T01:29:09.542Z,118.99
2023-06-10T01:31:58.576Z,118.99
2023-06-10T01:34:29.566Z,118.99
2023-06-10T01:37:00.202Z,118.99
2023-06-10T01:39:30.764Z,118.99
2023-06-10T01:41:59.397Z,118.99
2023-06-10T01:44:28.037Z,118.99
2023-06-10T01:46:57.927Z,118.99
2023-06-10T01:49:29.645Z,118.99
2023-06-10T01:51:59.520Z,118.99
2023-06-10T01:54:29.332Z,118.99
2023-06-10T01:56:59.142Z,118.99
2023-06-10T01:59:28.941Z,118.99
2023-06-10T02:01:58.783Z,118.99
2023-06-10T02:04:28.636Z,118.99
2023-06-10T02:06:58.639Z,118.99
2023-06-10T02:09:28.665Z,118.99
2023-06-10T02:11:59.004Z,118.99
2023-06-10T02:14:28.754Z,118.99
2023-06-10T02:16:58.747Z,118.99
2023-06-10T02:19:28.656Z,118.99
2023-06-10T02:21:58.527Z,118.99
2023-06-10T02:24:28.438Z,118.99
2023-06-10T02:26:58.196Z,118.99
2023-06-10T02:29:28.047Z,118.99
2023-06-10T02:31:57.820Z,118.99
2023-06-10T02:34:27.428Z,118.99
2023-06-10T02:36:55.791Z,118.99
2023-06-10T02:39:25.749Z,118.99
2023-06-10T02:41:55.811Z,118.99
2023-06-10T02:44:25.628Z,118.99
2023-06-10T02:46:55.466Z,118.99
2023-06-10T02:49:25.324Z,118.99
2023-06-10T02:51:57.870Z,118.99
2023-06-10T02:54:27.935Z,118.99
2023-06-10T02:56:57.749Z,118.99
2023-06-10T02:59:29.769Z,118.99
2023-06-10T03:02:02.452Z,118.99
2023-06-10T03:04:32.477Z,118.99
2023-06-10T03:07:04.677Z,118.99
2023-06-10T03:09:34.589Z,118.99
2023-06-10T03:12:01.826Z,118.99
2023-06-10T03:14:30.413Z,118.99
2023-06-10T03:17:00.758Z,118.99
2023-06-10T03:19:31.852Z,118.99
2023-06-10T03:22:12.565Z,118.99
2023-06-10T03:24:42.525Z,118.99
2023-06-10T03:27:12.325Z,118.99
2023-06-10T03:29:42.067Z,118.99
2023-06-10T03:32:11.804Z,118.99
2023-06-10T03:34:42.132Z,118.99
2023-06-10T03:37:11.994Z,118.99
2023-06-10T03:39:41.739Z,118.99
2023-06-10T03:42:11.495Z,118.99
2023-06-10T03:44:41.241Z,118.99
2023-06-10T03:47:11.029Z,118.99
2023-06-10T03:49:41.469Z,118.99
2023-06-10T03:52:11.381Z,118.99
2023-06-10T03:54:41.122Z,118.99
2023-06-10T03:57:10.877Z,118.99
2023-06-10T03:59:40.726Z,118.99
2023-06-10T04:02:10.864Z,118.99
2023-06-10T04:04:44.598Z,118.99
2023-06-10T04:07:15.052Z,118.99
2023-06-10T04:09:44.960Z,118.99
2023-06-10T04:12:15.466Z,118.99
2023-06-10T04:14:45.369Z,118.99
2023-06-10T04:17:15.237Z,118.99
2023-06-10T04:19:45.049Z,118.99
2023-06-10T04:22:14.921Z,118.99
2023-06-10T04:24:44.789Z,118.99
2023-06-10T04:27:14.557Z,118.99
2023-06-10T04:29:44.496Z,118.99
2023-06-10T04:32:14.524Z,118.99
2023-06-10T04:34:44.249Z,118.99
2023-06-10T04:37:14.434Z,118.99
2023-06-10T04:39:44.318Z,118.99
2023-06-10T04:42:14.170Z,118.99
2023-06-10T04:44:44.070Z,118.99
2023-06-10T04:47:13.903Z,118.99
2023-06-10T04:49:44.029Z,118.99
2023-06-10T04:52:17.516Z,118.99
2023-06-10T04:54:49.635Z,118.99
2023-06-10T04:57:19.597Z,118.99
2023-06-10T04:59:49.419Z,118.99
2023-06-10T05:02:19.391Z,118.99
2023-06-10T05:04:49.384Z,118.99
2023-06-10T05:07:19.169Z,118.99
2023-06-10T05:09:48.976Z,118.99
2023-06-10T05:12:18.865Z,118.99
2023-06-10T05:14:48.613Z,118.99
2023-06-10T05:17:18.497Z,118.99
2023-06-10T05:19:48.423Z,118.99
2023-06-10T05:22:19.209Z,118.99
2023-06-10T05:24:48.959Z,118.99
2023-06-10T05:27:18.763Z,118.99
2023-06-10T05:29:46.417Z,118.99
2023-06-10T05:32:13.283Z,118.99
2023-06-10T05:34:40.094Z,118.99
2023-06-10T05:37:06.945Z,118.99
2023-06-10T05:39:33.876Z,118.99
2023-06-10T05:42:02.396Z,118.99
2023-06-10T05:44:29.277Z,118.99
2023-06-10T05:46:56.535Z,118.99
2023-06-10T05:49:23.442Z,118.99
2023-06-10T05:51:54.883Z,118.99
2023-06-10T05:54:21.795Z,118.99
2023-06-10T05:56:50.793Z,118.99
2023-06-10T05:59:17.611Z,118.99
2023-06-10T06:01:44.651Z,118.99
2023-06-10T06:04:11.505Z,118.99
2023-06-10T06:06:41.343Z,118.99
2023-06-10T06:09:08.307Z,118.99
2023-06-10T06:11:36.407Z,118.99
2023-06-10T06:14:03.326Z,118.99
2023-06-10T06:16:30.408Z,118.99
2023-06-10T06:18:57.313Z,118.99
2023-06-10T06:21:24.241Z,118.99
2023-06-10T06:23:51.316Z,118.99
2023-06-10T06:26:18.106Z,118.99
2023-06-10T06:28:45.334Z,118.99
2023-06-10T06:31:12.287Z,118.99
2023-06-10T06:33:39.263Z,118.99
2023-06-10T06:36:06.392Z,118.99
2023-06-10T06:38:33.206Z,118.99
2023-06-10T06:41:04.324Z,118.99
2023-06-10T06:43:34.441Z,118.99
2023-06-10T06:46:01.270Z,118.99
2023-06-10T06:48:28.212Z,118.99
2023-06-10T06:50:57.305Z,118.99
2023-06-10T06:53:24.244Z,118.99
2023-06-10T06:55:51.133Z,118.99
2023-06-10T06:58:18.024Z,118.99
2023-06-10T07:00:44.836Z,118.99
2023-06-10T07:03:12.464Z,118.99
2023-06-10T07:05:40.010Z,118.99
2023-06-10T07:08:07.032Z,118.99
2023-06-10T07:10:34.130Z,118.99
2023-06-10T07:13:01.144Z,118.99
2023-06-10T07:15:27.965Z,118.99
2023-06-10T07:17:54.853Z,118.99
2023-06-10T07:20:21.841Z,118.99
2023-06-10T07:22:48.642Z,118.99
2023-06-10T07:25:16.767Z,118.99
2023-06-10T07:27:44.001Z,118.99
2023-06-10T07:30:12.253Z,118.99
2023-06-10T07:32:39.052Z,118.99
2023-06-10T07:35:10.321Z,118.99
2023-06-10T07:37:37.502Z,118.99
2023-06-10T07:40:04.817Z,118.99
2023-06-10T07:42:34.288Z,118.99
2023-06-10T07:45:01.133Z,118.99
2023-06-10T07:47:28.194Z,118.99
2023-06-10T07:49:55.090Z,118.99
2023-06-10T07:52:21.953Z,118.99
2023-06-10T07:54:48.835Z,118.99
2023-06-10T07:57:16.624Z,118.99
2023-06-10T07:59:45.320Z,118.99
2023-06-10T08:02:12.452Z,118.99
2023-06-10T08:04:39.490Z,118.99
2023-06-10T08:07:06.633Z,118.99
2023-06-10T08:09:33.538Z,118.99
2023-06-10T08:12:00.351Z,118.99
2023-06-10T08:14:27.543Z,118.99
2023-06-10T08:16:54.505Z,118.99
2023-06-10T08:19:21.381Z,118.99
2023-06-10T08:21:48.139Z,118.99
2023-06-10T08:24:17.519Z,118.99
2023-06-10T08:26:44.542Z,118.99
2023-06-10T08:29:13.628Z,118.99
2023-06-10T08:31:44.431Z,118.99
2023-06-10T08:34:11.629Z,118.99
2023-06-10T08:36:38.476Z,118.99
2023-06-10T08:39:05.431Z,118.99
2023-06-10T08:41:37.970Z,118.99
2023-06-10T08:44:21.744Z,118.99
2023-06-10T08:46:49.225Z,118.99
2023-06-10T08:49:21.864Z,118.99
2023-06-10T08:51:51.610Z,118.99
2023-06-10T08:54:29.455Z,118.99
2023-06-10T08:56:58.370Z,118.99
2023-06-10T08:59:26.345Z,118.99
2023-06-10T09:01:54.282Z,118.99
2023-06-10T09:04:21.792Z,118.99
2023-06-10T09:06:51.167Z,118.99
2023-06-10T09:09:20.749Z,118.99
2023-06-10T09:11:47.538Z,118.99
2023-06-10T09:14:14.764Z,118.99
2023-06-10T09:16:42.082Z,118.99
2023-06-10T09:19:09.368Z,118.99
2023-06-10T09:21:39.256Z,118.99
2023-06-10T09:24:07.193Z,118.99
2023-06-10T09:26:34.117Z,118.99
2023-06-10T09:29:06.126Z,118.99
2023-06-10T09:31:36.375Z,118.99
2023-06-10T09:34:07.239Z,118.99
2023-06-10T09:36:34.974Z,118.99
2023-06-10T09:39:01.771Z,118.99
2023-06-10T09:41:41.330Z,118.99
2023-06-10T09:44:17.268Z,118.99
2023-06-10T09:46:46.777Z,118.99
2023-06-10T09:49:13.631Z,118.99
2023-06-10T09:51:53.706Z,118.99
2023-06-10T09:54:21.611Z,118.99
2023-06-10T09:56:53.265Z,118.99
2023-06-10T09:59:32.438Z,118.99
2023-06-10T10:01:59.280Z,118.99
2023-06-10T10:04:26.898Z,118.99
2023-06-10T10:06:53.814Z,118.99
2023-06-10T10:09:20.752Z,118.99
2023-06-10T10:11:49.603Z,118.99
2023-06-10T10:14:17.856Z,118.99
2023-06-10T10:16:46.110Z,118.99
2023-06-10T10:19:19.344Z,118.99
2023-06-10T10:21:55.142Z,118.99
2023-06-10T10:24:39.966Z,118.99
2023-06-10T10:27:15.201Z,118.99
2023-06-10T10:29:47.045Z,118.99
2023-06-10T10:32:15.770Z,118.99
2023-06-10T10:35:01.787Z,118.99
2023-06-10T10:37:29.360Z,118.99
2023-06-10T10:39:57.719Z,118.99
2023-06-10T10:42:25.224Z,118.99
2023-06-10T10:44:52.738Z,118.99
2023-06-10T10:47:22.649Z,118.99
2023-06-10T10:49:53.881Z,118.99
2023-06-10T10:52:20.926Z,118.99
2023-06-10T10:54:48.727Z,118.99
2023-06-10T10:57:25.270Z,118.99
2023-06-10T10:59:53.254Z,118.99
2023-06-10T11:02:41.873Z,118.99
2023-06-10T11:05:09.706Z,118.99
2023-06-10T11:07:37.548Z,118.99
2023-06-10T11:10:08.740Z,118.99
2023-06-10T11:13:14.439Z,110.01
2023-06-10T11:15:51.342Z,107.18
2023-06-10T11:18:21.200Z,95.50
2023-06-10T11:20:51.205Z,95.17
2023-06-10T11:23:30.635Z,98.22
2023-06-10T11:26:17.432Z,80.99
2023-06-10T11:28:47.249Z,69.66
2023-06-10T11:31:22.404Z,50.90
2023-06-10T11:33:54.834Z,52.71
2023-06-10T11:36:22.981Z,50.85
2023-06-10T11:38:49.938Z,37.78
2023-06-10T11:41:18.531Z,35.15
2023-06-10T11:43:46.642Z,38.44
2023-06-10T11:46:15.296Z,32.24
2023-06-10T11:48:59.613Z,21.47
2023-06-10T11:51:30.138Z,10.98
2023-06-10T11:53:57.259Z,14.42
2023-06-10T11:56:27.074Z,-6.00
2023-06-10T11:59:05.379Z,-6.00
2023-06-10T12:01:34.668Z,-4.10
2023-06-10T12:04:04.515Z,-6.00
2023-06-10T12:06:41.328Z,-6.00
2023-06-10T12:09:23.541Z,-6.00
2023-06-10T12:12:03.550Z,-6.00
2023-06-10T12:15:07.090Z,-6.00
2023-06-10T12:17:35.245Z,-6.00
2023-06-10T12:20:25.180Z,-6.00
2023-06-10T12:22:52.078Z,-6.00
2023-06-10T12:25:26.973Z,-6.00
2023-06-10T12:27:55.970Z,-6.00
2023-06-10T12:30:28.499Z,-6.00
2023-06-10T12:32:56.423Z,-6.00
2023-06-10T12:35:28.516Z,-6.00
2023-06-10T12:37:57.073Z,-6.00
2023-06-10T12:40:34.522Z,-6.00
2023-06-10T12:43:02.264Z,-6.00
2023-06-10T12:45:40.871Z,-6.00
2023-06-10T12:48:12.487Z,-6.00
2023-06-10T12:50:41.382Z,-6.00
2023-06-10T12:53:09.275Z,-6.00
2023-06-10T12:55:36.732Z,-6.00
2023-06-10T12:58:04.287Z,-6.00
2023-06-10T13:00:31.689Z,-6.00
2023-06-10T13:03:02.045Z,-6.00
2023-06-10T13:05:29.766Z,-6.00
2023-06-10T13:07:56.620Z,-6.00
2023-06-10T13:10:25.765Z,-6.00
2023-06-10T13:12:53.672Z,-6.00
2023-06-10T13:15:20.688Z,-6.00
2023-06-10T13:17:51.072Z,-6.00
2023-06-10T13:20:18.278Z,-6.00
2023-06-10T13:22:45.187Z,-6.00
2023-06-10T13:25:12.858Z,-6.00
2023-06-10T13:27:40.202Z,-6.00
2023-06-10T13:30:08.408Z,-6.00
2023-06-10T13:32:35.228Z,-6.00
2023-06-10T13:35:04.979Z,-6.00
2023-06-10T13:37:32.270Z,-6.00
2023-06-10T13:39:59.137Z,-6.00
2023-06-10T13:42:27.606Z,-6.00
2023-06-10T13:44:54.497Z,-6.00
2023-06-10T13:47:22.060Z,-6.00
2023-06-10T13:49:49.089Z,-6.00
2023-06-10T13:52:16.232Z,-6.00
2023-06-10T13:54:43.063Z,-6.00
2023-06-10T13:57:11.597Z,-6.00
2023-06-10T13:59:39.023Z,-6.00
2023-06-10T14:02:06.014Z,-6.00
2023-06-10T14:04:33.805Z,-6.00
2023-06-10T14:07:00.649Z,-6.00
2023-06-10T14:09:27.527Z,-6.00
2023-06-10T14:11:55.421Z,-6.00
2023-06-10T14:14:23.434Z,-6.00
2023-06-10T14:16:50.485Z,-6.00
2023-06-10T14:19:17.302Z,-6.00
2023-06-10T14:21:44.148Z,-6.00
2023-06-10T14:24:11.400Z,-6.00
2023-06-10T14:26:38.561Z,-6.00
2023-06-10T14:29:05.366Z,-6.00
2023-06-10T14:31:32.234Z,-6.00
2023-06-10T14:33:59.836Z,-6.00
2023-06-10T14:36:26.965Z,-6.00
2023-06-10T14:38:54.859Z,-6.00
2023-06-10T14:41:23.360Z,-6.00
2023-06-10T14:43:50.348Z,-6.00
2023-06-10T14:46:17.472Z,-6.00
2023-06-10T14:48:44.285Z,-6.00
2023-06-10T14:51:11.184Z,-6.00
2023-06-10T14:53:38.141Z,-6.00
2023-06-10T14:56:05.398Z,-6.00
2023-06-10T14:58:32.347Z,-6.00
2023-06-10T15:00:59.168Z,-6.00
2023-06-10T15:03:26.011Z,-6.00
2023-06-10T15:05:52.821Z,-6.00
2023-06-10T15:08:19.790Z,-6.00
2023-06-10T15:10:46.687Z,-6.00
2023-06-10T15:13:13.680Z,-6.00
2023-06-10T15:15:40.661Z,-6.00
2023-06-10T15:18:07.568Z,-6.00
2023-06-10T15:20:34.866Z,-6.00
2023-06-10T15:23:02.682Z,-6.00
2023-06-10T15:25:31.922Z,-6.00
2023-06-10T15:27:59.541Z,-6.00
2023-06-10T15:30:26.665Z,-6.00
2023-06-10T15:32:53.684Z,-6.00
2023-06-10T15:35:20.950Z,-6.00
2023-06-10T15:37:47.867Z,-6.00
2023-06-10T15:40:14.732Z,-6.00
2023-06-10T15:42:42.041Z,-6.00
2023-06-10T15:45:09.505Z,-6.00
2023-06-10T15:47:36.652Z,-6.00
2023-06-10T15:50:04.260Z,-6.00
2023-06-10T15:52:31.106Z,-6.00
2023-06-10T15:54:57.913Z,-6.00
2023-06-10T15:57:27.010Z,-6.00
2023-06-10T15:59:54.843Z,-6.00
2023-06-10T16:02:21.661Z,-6.00
2023-06-10T16:04:48.552Z,-6.00
2023-06-10T16:07:15.419Z,-6.00
2023-06-10T16:09:42.281Z,-6.00
2023-06-10T16:12:09.576Z,-6.00
2023-06-10T16:14:36.419Z,-6.00
2023-06-10T16:17:03.593Z,-6.00
2023-06-10T16:19:30.820Z,-6.00
2023-06-10T16:21:57.729Z,-6.00
2023-06-10T16:24:24.892Z,-6.00
2023-06-10T16:26:51.827Z,-6.00
2023-06-10T16:29:18.820Z,-6.00
2023-06-10T16:31:45.919Z,-6.00
2023-06-10T16:34:12.868Z,-6.00
2023-06-10T16:36:39.796Z,-6.00
2023-06-10T16:39:06.952Z,-6.00
2023-06-10T16:41:33.732Z,-6.00
2023-06-10T16:44:03.557Z,-6.00
2023-06-10T16:46:31.481Z,-6.00
2023-06-10T16:48:58.340Z,-6.00
2023-06-10T16:51:25.249Z,-6.00
2023-06-10T16:53:52.417Z,-6.00
2023-06-10T16:56:19.351Z,-6.00
2023-06-10T16:58:46.171Z,-6.00
2023-06-10T17:01:12.969Z,-6.00
2023-06-10T17:03:40.414Z,-6.00
2023-06-10T17:06:07.266Z,-6.00
2023-06-10T17:08:34.256Z,-6.00
2023-06-10T17:11:01.284Z,-6.00
2023-06-10T17:13:28.268Z,-6.00
2023-06-10T17:15:56.903Z,-6.00
2023-06-10T17:18:23.934Z,-6.00
2023-06-10T17:20:50.980Z,-6.00
2023-06-10T17:23:17.827Z,-6.00
2023-06-10T17:25:45.106Z,-6.00
2023-06-10T17:28:11.911Z,-6.00
2023-06-10T17:30:38.890Z,-6.00
2023-06-10T17:33:05.768Z,-6.00
2023-06-10T17:35:32.764Z,-6.00
2023-06-10T17:37:59.622Z,-6.00
2023-06-10T17:40:26.511Z,-6.00
2023-06-10T17:42:53.807Z,-6.00
2023-06-10T17:45:21.464Z,-6.00
2023-06-10T17:47:48.613Z,-6.00
2023-06-10T17:50:18.445Z,-6.00
2023-06-10T17:52:46.620Z,-6.00
2023-06-10T17:55:13.809Z,-6.00
2023-06-10T17:57:40.860Z,-6.00
2023-06-10T18:00:08.426Z,-6.00
2023-06-10T18:02:35.885Z,-6.00
2023-06-10T18:05:03.092Z,-6.00
2023-06-10T18:07:30.036Z,-6.00
2023-06-10T18:09:56.969Z,-6.00
2023-06-10T18:12:24.418Z,-6.00
2023-06-10T18:14:51.472Z,-6.00
2023-06-10T18:17:18.250Z,-6.00
2023-06-10T18:19:45.097Z,-6.00
2023-06-10T18:22:12.172Z,-6.00
2023-06-10T18:24:38.932Z,-6.00
2023-06-10T18:27:06.538Z,-6.00
2023-06-10T18:29:33.390Z,-6.00
2023-06-10T18:32:01.836Z,-6.00
2023-06-10T18:34:30.201Z,-6.00
2023-06-10T18:36:57.307Z,-6.00
2023-06-10T18:39:24.394Z,-6.00
2023-06-10T18:41:51.387Z,-6.00
2023-06-10T18:44:18.446Z,-6.00
2023-06-10T18:46:51.808Z,-6.00
2023-06-10T18:49:18.633Z,-6.00
2023-06-10T18:51:45.531Z,-6.00
2023-06-10T18:54:12.360Z,-6.00
2023-06-10T18:56:40.608Z,-6.00
2023-06-10T18:59:07.428Z,-6.00
2023-06-10T19:01:34.334Z,-6.00
2023-06-10T19:04:01.542Z,-6.00
2023-06-10T19:06:28.493Z,-6.00
2023-06-10T19:08:55.951Z,-6.00
2023-06-10T19:11:22.850Z,-6.00
2023-06-10T19:13:49.901Z,-6.00
2023-06-10T19:16:16.646Z,-6.00
2023-06-10T19:18:43.654Z,-6.00
2023-06-10T19:21:10.542Z,-6.00
2023-06-10T19:23:37.569Z,-6.00
2023-06-10T19:26:04.932Z,-6.00
2023-06-10T19:28:32.009Z,-6.00
2023-06-10T19:30:58.872Z,-6.00
2023-06-10T19:33:25.983Z,-6.00
2023-06-10T19:35:52.856Z,-6.00
2023-06-10T19:38:21.201Z,-6.00
2023-06-10T19:40:48.117Z,-6.00
2023-06-10T19:43:14.968Z,-6.00
2023-06-10T19:45:41.814Z,-6.00
2023-06-10T19:48:11.103Z,-6.00
2023-06-10T19:50:38.467Z,-6.00
2023-06-10T19:53:05.658Z,-6.00
2023-06-10T19:55:33.241Z,-6.00
2023-06-10T19:58:01.818Z,-6.00
2023-06-10T20:00:28.882Z,-6.00
2023-06-10T20:02:55.831Z,-6.00
2023-06-10T20:05:23.478Z,-6.00
2023-06-10T20:07:50.563Z,-6.00
2023-06-10T20:10:19.200Z,-6.00
2023-06-10T20:12:46.170Z,-6.00
2023-06-10T20:15:13.211Z,-6.00
2023-06-10T20:17:40.326Z,-6.00
2023-06-10T20:20:07.694Z,-6.00
2023-06-10T20:22:34.418Z,-6.00
2023-06-10T20:25:01.343Z,-6.00
2023-06-10T20:27:28.263Z,-6.00
2023-06-10T20:29:57.200Z,-6.00
2023-06-10T20:32:24.657Z,-6.00
2023-06-10T20:34:51.953Z,-6.00
2023-06-10T20:37:18.800Z,-6.00
2023-06-10T20:39:45.804Z,-6.00
2023-06-10T20:42:15.251Z,-6.00
2023-06-10T20:44:44.218Z,-6.00
2023-06-10T20:47:11.223Z,-6.00
2023-06-10T20:49:38.176Z,-6.00
2023-06-10T20:52:05.151Z,-6.00
2023-06-10T20:54:32.177Z,-6.00
2023-06-10T20:56:58.943Z,-6.00
2023-06-10T20:59:26.056Z,-6.00
2023-06-10T21:01:52.945Z,-6.00
2023-06-10T21:04:19.865Z,-6.00
2023-06-10T21:06:46.789Z,-6.00
2023-06-10T21:09:13.729Z,-6.00
2023-06-10T21:11:40.697Z,-6.00
2023-06-10T21:14:09.023Z,-6.00
2023-06-10T21:16:36.351Z,-6.00
2023-06-10T21:19:03.629Z,-6.00
2023-06-10T21:21:30.960Z,-6.00
2023-06-10T21:23:57.884Z,-6.00
2023-06-10T21:26:24.853Z,-4.34
2023-06-10T21:28:54.305Z,2.92
2023-06-10T21:31:21.625Z,7.38
2023-06-10T21:33:48.432Z,15.78
2023-06-10T21:36:18.856Z,27.57
2023-06-10T21:38:46.219Z,33.38
2023-06-10T21:41:13.267Z,49.91
2023-06-10T21:43:40.165Z,57.71
2023-06-10T21:46:07.087Z,62.84
2023-06-10T21:48:35.475Z,73.79
2023-06-10T21:51:02.313Z,71.70
2023-06-10T21:53:29.064Z,80.84
2023-06-10T21:55:55.927Z,85.19
2023-06-10T21:58:22.844Z,99.75
2023-06-10T22:00:51.532Z,116.67
2023-06-10T22:03:18.731Z,118.99
2023-06-10T22:05:45.990Z,118.99
2023-06-10T22:08:14.949Z,118.99
2023-06-10T22:10:41.977Z,118.99
2023-06-10T22:13:09.444Z,118.99
2023-06-10T22:15:36.475Z,118.99
2023-06-10T22:18:05.942Z,118.99
2023-06-10T22:20:32.955Z,118.99
2023-06-10T22:22:59.791Z,118.99
2023-06-10T22:25:26.489Z,118.99
2023-06-10T22:27:53.359Z,118.99
2023-06-10T22:30:20.479Z,118.99
2023-06-10T22:32:47.399Z,118.99
2023-06-10T22:35:14.595Z,118.99
2023-06-10T22:37:41.406Z,118.99
2023-06-10T22:40:08.888Z,118.99
2023-06-10T22:42:35.715Z,118.99
2023-06-10T22:45:02.565Z,118.99
2023-06-10T22:47:29.470Z,118.99
2023-06-10T22:49:56.488Z,118.99
2023-06-10T22:52:23.473Z,118.99
2023-06-10T22:54:50.455Z,118.99
2023-06-10T22:57:17.215Z,118.99
2023-06-10T22:59:44.114Z,118.99
2023-06-10T23:02:11.036Z,118.99
2023-06-10T23:04:38.035Z,118.99
2023-06-10T23:07:05.438Z,118.99
2023-06-10T23:09:32.283Z,118.99
2023-06-10T23:11:59.022Z,118.99
2023-06-10T23:14:25.992Z,118.99
2023-06-10T23:16:52.916Z,118.99
2023-06-10T23:19:20.171Z,118.99
2023-06-10T23:21:57.935Z,118.99
2023-06-10T23:24:31.094Z,118.99
2023-06-10T23:26:59.181Z,118.99
2023-06-10T23:29:26.759Z,118.99
2023-06-10T23:31:54.203Z,118.99
2023-06-10T23:34:22.483Z,118.99
2023-06-10T23:36:49.714Z,118.99
2023-06-10T23:39:17.341Z,118.99
2023-06-10T23:41:45.211Z,118.99
2023-06-10T23:44:13.229Z,118.99
2023-06-10T23:46:40.386Z,118.99
2023-06-10T23:49:10.306Z,118.99
2023-06-10T23:51:38.304Z,118.99
2023-06-10T23:54:06.272Z,118.99
2023-06-10T23:56:33.099Z,118.99
2023-06-10T23:58:59.946Z,118.99
